createdAt,value
2023-05-05T00:02:17.897Z,3.95
2023-05-05T00:04:44.894Z,3.90
2023-05-05T00:07:12.168Z,4.50
2023-05-05T00:09:39.142Z,3.90
2023-05-05T00:12:06.290Z,4.25
2023-05-05T00:14:33.120Z,4.47
2023-05-05T00:17:00.547Z,4.50
2023-05-05T00:19:27.861Z,3.53
2023-05-05T00:21:54.794Z,3.90
2023-05-05T00:24:24.535Z,3.53
2023-05-05T00:26:51.414Z,4.00
2023-05-05T00:29:18.574Z,3.92
2023-05-05T00:31:45.983Z,4.00
2023-05-05T00:34:12.982Z,4.13
2023-05-05T00:36:39.906Z,4.10
2023-05-05T00:39:07.137Z,4.55
2023-05-05T00:41:34.353Z,3.95
2023-05-05T00:44:01.492Z,4.43
2023-05-05T00:46:30.520Z,3.72
2023-05-05T00:48:59.638Z,3.53
2023-05-05T00:51:27.671Z,3.57
2023-05-05T00:53:55.366Z,4.05
2023-05-05T00:56:23.217Z,4.40
2023-05-05T00:58:50.362Z,4.03
2023-05-05T01:01:17.752Z,3.63
2023-05-05T01:03:44.693Z,4.05
2023-05-05T01:06:20.711Z,3.40
2023-05-05T01:09:12.067Z,3.92
2023-05-05T01:12:21.740Z,3.70
2023-05-05T01:15:01.428Z,4.00
2023-05-05T01:17:45.772Z,3.40
2023-05-05T01:20:24.756Z,3.13
2023-05-05T01:22:58.554Z,3.80
2023-05-05T01:25:56.570Z,3.45
2023-05-05T01:29:06.226Z,3.10
2023-05-05T01:31:51.557Z,3.13
2023-05-05T01:34:28.121Z,3.45
2023-05-05T01:37:44.416Z,4.20
2023-05-05T01:40:13.475Z,2.97
2023-05-05T01:42:42.557Z,3.22
2023-05-05T01:45:12.954Z,4.27
2023-05-05T01:47:42.667Z,3.60
2023-05-05T01:50:11.461Z,3.88
2023-05-05T01:52:40.144Z,4.60
2023-05-05T01:55:09.610Z,4.13
2023-05-05T01:57:38.716Z,4.07
2023-05-05T02:00:07.722Z,3.70
2023-05-05T02:02:44.062Z,4.60
2023-05-05T02:05:13.190Z,4.00
2023-05-05T02:07:40.433Z,4.20
2023-05-05T02:10:08.790Z,4.00
2023-05-05T02:12:39.848Z,4.05
2023-05-05T02:15:08.288Z,3.90
2023-05-05T02:17:35.426Z,3.53
2023-05-05T02:20:04.698Z,3.50
2023-05-05T02:22:32.363Z,2.88
2023-05-05T02:24:59.161Z,3.65
2023-05-05T02:27:27.262Z,3.40
2023-05-05T02:29:59.088Z,3.83
2023-05-05T02:32:35.890Z,3.88
2023-05-05T02:35:12.816Z,3.42
2023-05-05T02:37:48.174Z,4.03
2023-05-05T02:40:22.387Z,3.80
2023-05-05T02:42:54.356Z,3.17
2023-05-05T02:45:26.753Z,3.05
2023-05-05T02:47:53.802Z,3.05
2023-05-05T02:50:22.001Z,2.90
2023-05-05T02:53:03.383Z,3.20
2023-05-05T02:56:12.937Z,3.00
2023-05-05T02:58:57.164Z,2.95
2023-05-05T03:02:15.603Z,3.45
2023-05-05T03:05:25.215Z,3.53
2023-05-05T03:07:56.051Z,3.22
2023-05-05T03:10:40.756Z,3.60
2023-05-05T03:13:11.132Z,3.42
2023-05-05T03:15:49.608Z,3.45
2023-05-05T03:18:22.515Z,3.05
2023-05-05T03:20:56.374Z,3.08
2023-05-05T03:23:23.377Z,3.28
2023-05-05T03:25:55.572Z,2.80
2023-05-05T03:28:34.818Z,2.88
2023-05-05T03:31:07.584Z,2.80
2023-05-05T03:33:36.924Z,2.50
2023-05-05T03:36:04.034Z,2.78
2023-05-05T03:38:30.978Z,2.58
2023-05-05T03:41:03.271Z,2.38
2023-05-05T03:43:31.211Z,2.30
2023-05-05T03:45:58.455Z,2.33
2023-05-05T03:48:25.596Z,2.47
2023-05-05T03:50:53.966Z,2.20
2023-05-05T03:53:22.969Z,2.35
2023-05-05T03:55:49.828Z,2.25
2023-05-05T03:58:16.684Z,2.53
2023-05-05T04:00:43.759Z,2.90
2023-05-05T04:03:11.432Z,2.30
2023-05-05T04:05:38.611Z,2.50
2023-05-05T04:08:05.852Z,2.72
2023-05-05T04:10:33.349Z,2.30
2023-05-05T04:13:01.350Z,2.10
2023-05-05T04:15:30.804Z,2.00
2023-05-05T04:17:57.657Z,3.00
2023-05-05T04:20:25.235Z,3.05
2023-05-05T04:22:52.762Z,2.97
2023-05-05T04:25:20.382Z,2.78
2023-05-05T04:27:48.612Z,3.45
2023-05-05T04:30:15.915Z,3.30
2023-05-05T04:32:42.835Z,2.75
2023-05-05T04:35:10.987Z,3.55
2023-05-05T04:37:37.934Z,2.60
2023-05-05T04:40:05.862Z,3.22
2023-05-05T04:42:34.372Z,3.10
2023-05-05T04:45:02.346Z,2.60
2023-05-05T04:47:30.303Z,2.65
2023-05-05T04:49:57.158Z,2.25
2023-05-05T04:52:23.989Z,2.15
2023-05-05T04:54:51.751Z,1.77
2023-05-05T04:57:18.518Z,2.28
2023-05-05T04:59:45.435Z,2.45
2023-05-05T05:02:13.033Z,2.83
2023-05-05T05:04:39.956Z,3.00
2023-05-05T05:07:06.782Z,2.25
2023-05-05T05:09:33.654Z,3.00
2023-05-05T05:12:02.892Z,2.95
2023-05-05T05:14:30.038Z,3.05
2023-05-05T05:16:56.852Z,3.58
2023-05-05T05:19:24.541Z,2.90
2023-05-05T05:21:51.624Z,2.90
2023-05-05T05:24:18.616Z,3.15
2023-05-05T05:26:45.455Z,3.13
2023-05-05T05:29:12.987Z,3.00
2023-05-05T05:31:39.942Z,3.13
2023-05-05T05:34:07.251Z,2.95
2023-05-05T05:36:35.119Z,3.05
2023-05-05T05:39:03.006Z,2.97
2023-05-05T05:41:29.907Z,3.22
2023-05-05T05:43:57.224Z,3.40
2023-05-05T05:46:24.183Z,3.17
2023-05-05T05:48:51.082Z,3.35
2023-05-05T05:51:18.755Z,3.67
2023-05-05T05:53:46.656Z,3.03
2023-05-05T05:56:14.127Z,3.25
2023-05-05T05:58:41.029Z,3.20
2023-05-05T06:01:08.331Z,2.97
2023-05-05T06:03:35.781Z,3.00
2023-05-05T06:06:03.010Z,2.95
2023-05-05T06:08:29.845Z,2.95
2023-05-05T06:10:57.635Z,3.70
2023-05-05T06:13:24.490Z,3.03
2023-05-05T06:15:52.919Z,3.28
2023-05-05T06:18:20.097Z,3.47
2023-05-05T06:20:50.795Z,3.08
2023-05-05T06:23:18.842Z,3.10
2023-05-05T06:25:51.508Z,2.70
2023-05-05T06:28:18.632Z,3.00
2023-05-05T06:30:45.452Z,1.98
2023-05-05T06:33:12.565Z,2.60
2023-05-05T06:35:39.397Z,2.65
2023-05-05T06:38:06.383Z,2.67
2023-05-05T06:40:33.233Z,2.80
2023-05-05T06:43:00.049Z,2.75
2023-05-05T06:45:33.733Z,2.78
2023-05-05T06:48:00.758Z,3.28
2023-05-05T06:50:27.571Z,2.25
2023-05-05T06:52:54.431Z,3.00
2023-05-05T06:55:21.705Z,2.80
2023-05-05T06:57:48.533Z,2.58
2023-05-05T07:00:16.908Z,2.25
2023-05-05T07:02:44.149Z,2.25
2023-05-05T07:05:11.084Z,1.98
2023-05-05T07:07:38.777Z,2.60
2023-05-05T07:10:06.679Z,2.70
2023-05-05T07:12:33.760Z,2.22
2023-05-05T07:15:03.206Z,1.70
2023-05-05T07:17:36.332Z,1.70
2023-05-05T07:20:03.414Z,1.50
2023-05-05T07:22:30.240Z,1.40
2023-05-05T07:24:57.081Z,1.60
2023-05-05T07:27:24.056Z,2.50
2023-05-05T07:29:51.203Z,2.33
2023-05-05T07:32:18.042Z,1.75
2023-05-05T07:34:44.836Z,1.90
2023-05-05T07:37:12.806Z,1.98
2023-05-05T07:39:39.608Z,2.03
2023-05-05T07:42:07.293Z,1.80
2023-05-05T07:44:34.228Z,1.73
2023-05-05T07:47:01.052Z,2.00
2023-05-05T07:49:27.914Z,2.00
2023-05-05T07:51:55.286Z,2.15
2023-05-05T07:54:22.164Z,2.47
2023-05-05T07:56:49.012Z,1.92
2023-05-05T07:59:16.167Z,2.70
2023-05-05T08:01:42.861Z,2.20
2023-05-05T08:04:09.751Z,2.05
2023-05-05T08:06:36.704Z,2.60
2023-05-05T08:09:03.613Z,1.65
2023-05-05T08:11:30.488Z,1.95
2023-05-05T08:13:57.367Z,1.90
2023-05-05T08:16:24.272Z,2.03
2023-05-05T08:18:51.659Z,1.77
2023-05-05T08:21:18.470Z,2.05
2023-05-05T08:23:45.411Z,1.75
2023-05-05T08:26:12.257Z,1.80
2023-05-05T08:28:39.125Z,1.60
2023-05-05T08:31:06.737Z,1.60
2023-05-05T08:33:33.629Z,1.67
2023-05-05T08:36:00.468Z,1.77
2023-05-05T08:38:27.322Z,1.40
2023-05-05T08:40:54.178Z,1.52
2023-05-05T08:43:23.612Z,1.45
2023-05-05T08:45:51.542Z,1.15
2023-05-05T08:48:22.592Z,1.63
2023-05-05T08:50:57.300Z,1.50
2023-05-05T08:53:47.216Z,1.50
2023-05-05T08:56:15.904Z,1.52
2023-05-05T08:58:43.399Z,1.40
2023-05-05T09:01:11.026Z,1.50
2023-05-05T09:03:38.975Z,1.60
2023-05-05T09:06:06.911Z,1.90
2023-05-05T09:08:33.983Z,1.90
2023-05-05T09:11:02.147Z,1.80
2023-05-05T09:13:30.646Z,1.48
2023-05-05T09:15:58.504Z,1.80
2023-05-05T09:18:26.086Z,1.30
2023-05-05T09:20:53.000Z,1.63
2023-05-05T09:23:21.074Z,1.70
2023-05-05T09:26:05.973Z,1.60
2023-05-05T09:28:32.818Z,1.92
2023-05-05T09:31:16.097Z,1.88
2023-05-05T09:33:43.715Z,1.40
2023-05-05T09:36:11.532Z,1.83
2023-05-05T09:38:38.357Z,1.80
2023-05-05T09:41:06.446Z,1.90
2023-05-05T09:43:54.634Z,2.08
2023-05-05T09:46:21.922Z,2.13
2023-05-05T09:48:48.766Z,1.90
2023-05-05T09:51:16.044Z,1.92
2023-05-05T09:53:42.864Z,2.17
2023-05-05T09:56:10.404Z,2.33
2023-05-05T09:58:37.387Z,2.67
2023-05-05T10:01:04.368Z,2.70
2023-05-05T10:03:31.302Z,2.50
2023-05-05T10:05:59.578Z,2.95
2023-05-05T10:08:33.541Z,2.95
2023-05-05T10:11:06.365Z,2.78
2023-05-05T10:13:39.128Z,2.38
2023-05-05T10:16:09.165Z,2.22
2023-05-05T10:18:36.921Z,2.03
2023-05-05T10:21:04.851Z,1.90
2023-05-05T10:23:49.530Z,2.17
2023-05-05T10:26:19.499Z,1.73
2023-05-05T10:31:47.770Z,1.80
2023-05-05T10:35:04.227Z,2.45
2023-05-05T10:37:31.324Z,1.83
2023-05-05T10:39:59.212Z,1.77
2023-05-05T10:42:27.565Z,1.52
2023-05-05T10:44:54.533Z,1.98
2023-05-05T10:47:23.957Z,1.70
2023-05-05T10:50:21.744Z,1.77
2023-05-05T10:53:00.434Z,1.77
2023-05-05T10:56:10.770Z,1.50
2023-05-05T10:58:55.569Z,1.50
2023-05-05T11:01:34.614Z,1.48
2023-05-05T11:04:22.298Z,2.00
2023-05-05T11:07:13.465Z,1.80
2023-05-05T11:10:02.013Z,1.52
2023-05-05T11:12:30.488Z,1.60
2023-05-05T11:15:22.122Z,1.65
2023-05-05T11:17:49.112Z,1.45
2023-05-05T11:20:16.271Z,1.63
2023-05-05T11:23:05.288Z,1.42
2023-05-05T11:25:35.690Z,1.48
2023-05-05T11:28:25.360Z,1.65
2023-05-05T11:30:54.806Z,1.55
2023-05-05T11:36:02.705Z,1.45
2023-05-05T11:39:11.806Z,1.20
2023-05-05T11:42:22.722Z,1.40
2023-05-05T11:44:49.772Z,1.13
2023-05-05T11:47:16.585Z,1.30
2023-05-05T11:49:43.376Z,1.60
2023-05-05T11:52:14.529Z,1.30
2023-05-05T11:54:51.245Z,1.45
2023-05-05T11:57:26.836Z,1.42
2023-05-05T12:00:04.357Z,1.27
2023-05-05T12:02:34.405Z,1.30
2023-05-05T12:05:02.016Z,1.55
2023-05-05T12:07:32.208Z,1.20
2023-05-05T12:09:59.260Z,1.33
2023-05-05T12:12:40.490Z,1.20
2023-05-05T12:15:08.212Z,1.40
2023-05-05T12:17:45.954Z,1.13
2023-05-05T12:20:13.618Z,1.50
2023-05-05T12:22:40.903Z,1.40
2023-05-05T12:25:08.736Z,1.60
2023-05-05T12:27:35.950Z,1.50
2023-05-05T12:30:15.669Z,1.80
2023-05-05T12:32:42.909Z,1.40
2023-05-05T12:35:10.831Z,1.23
2023-05-05T12:37:38.523Z,1.20
2023-05-05T12:40:06.492Z,1.27
2023-05-05T12:42:39.551Z,1.20
2023-05-05T12:45:17.313Z,1.20
2023-05-05T12:47:44.688Z,1.20
2023-05-05T12:50:11.607Z,1.17
2023-05-05T12:52:45.787Z,1.20
2023-05-05T12:55:13.238Z,1.17
2023-05-05T12:58:00.822Z,0.80
2023-05-05T13:00:29.042Z,0.70
2023-05-05T13:02:56.765Z,3.30
2023-05-05T13:05:34.223Z,1.60
2023-05-05T13:08:01.084Z,1.08
2023-05-05T13:10:31.245Z,1.00
2023-05-05T13:12:58.375Z,0.82
2023-05-05T13:15:26.009Z,1.20
2023-05-05T13:18:02.455Z,1.27
2023-05-05T13:20:29.263Z,1.67
2023-05-05T13:22:56.074Z,1.48
2023-05-05T13:25:22.947Z,1.63
2023-05-05T13:27:49.797Z,1.55
2023-05-05T13:30:16.668Z,1.48
2023-05-05T13:32:43.522Z,2.10
2023-05-05T13:35:11.217Z,1.67
2023-05-05T13:37:39.494Z,1.52
2023-05-05T13:40:07.640Z,1.70
2023-05-05T13:42:34.469Z,1.90
2023-05-05T13:45:01.260Z,1.60
2023-05-05T13:47:28.108Z,2.25
2023-05-05T13:49:56.062Z,1.40
2023-05-05T13:52:22.881Z,1.50
2023-05-05T13:54:49.768Z,1.83
2023-05-05T13:57:16.856Z,1.92
2023-05-05T13:59:44.230Z,1.60
2023-05-05T14:02:11.167Z,1.55
2023-05-05T14:04:38.245Z,1.83
2023-05-05T14:07:05.061Z,1.75
2023-05-05T14:09:31.869Z,1.90
2023-05-05T14:11:58.873Z,2.03
2023-05-05T14:14:25.643Z,1.92
2023-05-05T14:16:52.719Z,1.70
2023-05-05T14:19:19.621Z,1.75
2023-05-05T14:21:46.437Z,1.90
2023-05-05T14:24:13.370Z,1.95
2023-05-05T14:26:40.167Z,1.42
2023-05-05T14:29:07.054Z,1.60
2023-05-05T14:31:33.903Z,1.58
2023-05-05T14:34:01.101Z,1.25
2023-05-05T14:36:27.936Z,1.20
2023-05-05T14:38:55.428Z,1.60
2023-05-05T14:41:22.358Z,1.38
2023-05-05T14:43:49.167Z,1.50
2023-05-05T14:46:16.069Z,1.80
2023-05-05T14:48:43.366Z,1.88
2023-05-05T14:51:10.148Z,1.48
2023-05-05T14:53:37.014Z,1.52
2023-05-05T14:56:03.854Z,1.30
2023-05-05T14:58:31.034Z,1.63
2023-05-05T15:00:58.057Z,1.50
2023-05-05T15:03:24.935Z,1.70
2023-05-05T15:05:51.910Z,1.65
2023-05-05T15:08:19.210Z,1.70
2023-05-05T15:10:46.603Z,1.48
2023-05-05T15:13:13.725Z,1.60
2023-05-05T15:15:41.054Z,1.70
2023-05-05T15:18:07.894Z,1.55
2023-05-05T15:20:34.729Z,1.45
2023-05-05T15:23:01.625Z,1.48
2023-05-05T15:25:28.478Z,1.63
2023-05-05T15:27:55.310Z,1.60
2023-05-05T15:30:22.187Z,1.38
2023-05-05T15:32:49.099Z,1.70
2023-05-05T15:35:16.067Z,1.70
2023-05-05T15:37:42.912Z,1.23
2023-05-05T15:40:10.545Z,1.58
2023-05-05T15:42:37.749Z,1.40
2023-05-05T15:45:05.902Z,1.50
2023-05-05T15:47:32.874Z,1.85
2023-05-05T15:49:59.700Z,2.00
2023-05-05T15:52:26.473Z,1.65
2023-05-05T15:54:53.357Z,1.95
2023-05-05T15:57:20.154Z,1.90
2023-05-05T15:59:47.051Z,1.80
2023-05-05T16:02:13.866Z,1.60
2023-05-05T16:04:40.747Z,1.80
2023-05-05T16:07:07.539Z,1.40
2023-05-05T16:09:34.345Z,1.50
2023-05-05T16:12:01.252Z,1.42
2023-05-05T16:14:28.282Z,1.50
2023-05-05T16:16:55.640Z,1.92
2023-05-05T16:19:23.330Z,1.77
2023-05-05T16:21:50.181Z,1.48
2023-05-05T16:24:17.115Z,1.77
2023-05-05T16:26:44.260Z,1.60
2023-05-05T16:29:11.883Z,1.75
2023-05-05T16:31:39.313Z,1.58
2023-05-05T16:34:07.003Z,1.70
2023-05-05T16:36:33.836Z,1.40
2023-05-05T16:39:00.765Z,1.35
2023-05-05T16:41:27.611Z,1.40
2023-05-05T16:43:54.564Z,1.55
2023-05-05T16:46:21.465Z,1.50
2023-05-05T16:48:48.432Z,1.20
2023-05-05T16:51:15.279Z,1.58
2023-05-05T16:53:42.065Z,1.30
2023-05-05T16:56:12.930Z,1.50
2023-05-05T16:58:40.499Z,1.65
2023-05-05T17:01:07.306Z,1.52
2023-05-05T17:03:34.128Z,1.40
2023-05-05T17:06:01.009Z,1.52
2023-05-05T17:08:27.823Z,1.33
2023-05-05T17:10:54.622Z,1.40
2023-05-05T17:13:22.960Z,1.42
2023-05-05T17:15:50.244Z,1.52
2023-05-05T17:18:19.971Z,1.60
2023-05-05T17:20:46.870Z,1.42
2023-05-05T17:23:13.778Z,1.40
2023-05-05T17:25:40.539Z,1.92
2023-05-05T17:28:07.461Z,1.52
2023-05-05T17:30:34.256Z,1.83
2023-05-05T17:33:01.104Z,1.50
2023-05-05T17:35:28.028Z,1.60
2023-05-05T17:37:54.978Z,1.73
2023-05-05T17:40:21.834Z,1.23
2023-05-05T17:42:48.649Z,1.60
2023-05-05T17:45:15.781Z,1.58
2023-05-05T17:47:42.614Z,1.27
2023-05-05T17:50:10.921Z,1.33
2023-05-05T17:52:37.976Z,1.30
2023-05-05T17:55:05.254Z,1.50
2023-05-05T17:57:32.069Z,1.70
2023-05-05T17:59:58.966Z,1.48
2023-05-05T18:02:25.890Z,1.40
2023-05-05T18:04:52.773Z,1.35
2023-05-05T18:07:20.347Z,1.50
2023-05-05T18:09:47.211Z,1.45
2023-05-05T18:12:14.050Z,1.40
2023-05-05T18:14:40.915Z,1.60
2023-05-05T18:17:07.752Z,1.60
2023-05-05T18:19:34.527Z,1.67
2023-05-05T18:22:01.471Z,1.45
2023-05-05T18:24:28.328Z,1.58
2023-05-05T18:26:55.157Z,1.70
2023-05-05T18:29:22.484Z,1.50
2023-05-05T18:31:52.590Z,1.20
2023-05-05T18:34:20.629Z,1.48
2023-05-05T18:36:50.657Z,1.40
2023-05-05T18:41:44.756Z,1.35
2023-05-05T18:44:11.752Z,1.25
2023-05-05T18:46:38.623Z,1.30
2023-05-05T18:49:05.450Z,1.35
2023-05-05T18:51:32.243Z,1.70
2023-05-05T18:54:00.592Z,1.25
2023-05-05T18:56:27.567Z,1.38
2023-05-05T18:58:54.394Z,1.50
2023-05-05T19:01:21.272Z,1.40
2023-05-05T19:03:48.306Z,1.67
2023-05-05T19:06:16.207Z,1.58
2023-05-05T19:08:43.884Z,1.50
2023-05-05T19:11:10.771Z,1.40
2023-05-05T19:16:11.701Z,1.38
2023-05-05T19:18:39.702Z,1.88
2023-05-05T19:21:06.575Z,1.52
2023-05-05T19:23:33.541Z,1.55
2023-05-05T19:26:00.576Z,1.60
2023-05-05T19:28:27.389Z,1.70
2023-05-05T19:30:54.255Z,1.77
2023-05-05T19:33:21.249Z,1.92
2023-05-05T19:35:48.150Z,1.85
2023-05-05T19:38:15.000Z,1.90
2023-05-05T19:40:42.716Z,1.92
2023-05-05T19:43:09.572Z,2.05
2023-05-05T19:45:36.449Z,2.22
2023-05-05T19:48:03.469Z,2.38
2023-05-05T19:50:31.483Z,1.92
2023-05-05T19:52:58.293Z,2.38
2023-05-05T19:55:25.601Z,2.65
2023-05-05T19:57:52.445Z,2.20
2023-05-05T20:00:19.715Z,2.03
2023-05-05T20:02:47.207Z,2.25
2023-05-05T20:05:16.180Z,2.20
2023-05-05T20:07:46.215Z,2.22
2023-05-05T20:10:13.359Z,2.10
2023-05-05T20:12:47.430Z,2.25
2023-05-05T20:15:20.287Z,1.88
2023-05-05T20:17:48.136Z,2.10
2023-05-05T20:20:21.779Z,1.70
2023-05-05T20:22:49.504Z,2.03
2023-05-05T20:25:16.612Z,2.00
2023-05-05T20:27:43.806Z,1.75
2023-05-05T20:30:11.997Z,1.60
2023-05-05T20:32:38.875Z,1.58
2023-05-05T20:35:06.427Z,1.30
2023-05-05T20:37:33.316Z,1.40
2023-05-05T20:40:00.316Z,1.45
2023-05-05T20:42:27.625Z,1.10
2023-05-05T20:44:54.608Z,1.40
2023-05-05T20:47:21.437Z,1.33
2023-05-05T20:49:48.242Z,1.30
2023-05-05T20:52:15.010Z,1.30
2023-05-05T20:54:41.892Z,1.50
2023-05-05T20:57:08.779Z,1.02
2023-05-05T20:59:35.682Z,0.90
2023-05-05T21:02:02.536Z,1.20
2023-05-05T21:04:29.596Z,1.05
2023-05-05T21:06:57.274Z,1.10
2023-05-05T21:09:24.334Z,1.10
2023-05-05T21:11:51.137Z,1.10
2023-05-05T21:14:18.021Z,1.00
2023-05-05T21:16:44.876Z,1.20
2023-05-05T21:19:11.723Z,0.82
2023-05-05T21:21:38.561Z,1.00
2023-05-05T21:24:07.772Z,1.00
2023-05-05T21:26:35.028Z,1.17
2023-05-05T21:29:01.908Z,0.80
2023-05-05T21:31:28.856Z,0.90
2023-05-05T21:33:55.702Z,1.00
2023-05-05T21:36:22.539Z,0.85
2023-05-05T21:38:49.678Z,1.05
2023-05-05T21:41:16.691Z,0.88
2023-05-05T21:43:43.541Z,1.00
2023-05-05T21:46:10.482Z,1.25
2023-05-05T21:48:39.028Z,0.90
2023-05-05T21:51:06.665Z,0.82
2023-05-05T21:53:33.551Z,1.00
2023-05-05T21:56:00.857Z,0.80
2023-05-05T21:58:27.829Z,1.05
2023-05-05T22:00:54.659Z,0.73
2023-05-05T22:03:21.552Z,0.88
2023-05-05T22:05:48.394Z,1.13
2023-05-05T22:08:15.204Z,1.00
2023-05-05T22:10:41.996Z,0.80
2023-05-05T22:13:10.359Z,0.80
2023-05-05T22:15:45.877Z,0.77
2023-05-05T22:18:14.208Z,0.80
2023-05-05T22:20:41.180Z,0.77
2023-05-05T22:23:08.106Z,0.65
2023-05-05T22:25:35.345Z,0.80
2023-05-05T22:28:02.294Z,0.90
2023-05-05T22:30:29.211Z,0.90
2023-05-05T22:32:56.142Z,1.10
2023-05-05T22:35:23.104Z,0.80
2023-05-05T22:37:49.954Z,0.82
2023-05-05T22:40:16.749Z,1.00
2023-05-05T22:42:43.590Z,0.88
2023-05-05T22:45:11.303Z,0.90
2023-05-05T22:47:38.215Z,0.80
2023-05-05T22:50:05.883Z,0.90
2023-05-05T22:52:32.694Z,0.80
2023-05-05T22:54:59.638Z,0.95
2023-05-05T22:57:26.453Z,0.80
2023-05-05T22:59:53.301Z,0.80
2023-05-05T23:02:20.147Z,0.80
2023-05-05T23:04:47.049Z,0.70
2023-05-05T23:07:13.954Z,0.80
2023-05-05T23:09:40.890Z,0.85
2023-05-05T23:12:07.771Z,0.80
2023-05-05T23:14:35.812Z,0.93
2023-05-05T23:17:02.740Z,0.80
2023-05-05T23:19:32.437Z,0.85
2023-05-05T23:22:00.138Z,0.80
2023-05-05T23:24:28.253Z,0.80
2023-05-05T23:26:58.014Z,0.90
2023-05-05T23:29:24.921Z,0.90
2023-05-05T23:31:51.749Z,0.80
2023-05-05T23:34:18.594Z,0.88
2023-05-05T23:36:45.470Z,0.95
2023-05-05T23:39:12.241Z,0.73
2023-05-05T23:41:39.150Z,0.90
2023-05-05T23:44:06.018Z,1.00
2023-05-05T23:46:32.827Z,0.70
2023-05-05T23:48:59.689Z,0.82
2023-05-05T23:51:27.212Z,1.00
2023-05-05T23:53:57.236Z,0.95
2023-05-05T23:58:52.337Z,0.70
